Terminal Aerodrome Forecast
Issued by NWS

Home | Current Version | Previous Version | Text Only | Print | Product List | Glossary On
Versions: 1 2 3 4 5 6 7 8 9 10 11 12 13 14 15 16 17 18 19 20 21 22 23 24 25 26
000
FTUS45 KREV 222323
TAFRNO
TAF
KRNO 222323Z 2300/2324 32009G16KT P6SM VCSH SCT060 BKN090 BKN180
     FM230200 32011KT P6SM SCT070 BKN200
     FM230600 VRB04KT P6SM FEW080 SCT200
     FM231700 32010KT P6SM FEW080 SCT200=

USA.gov is the U.S. government's official web portal to all federal, state and local government web resources and services.